Time;durP1;ratioP1;P1;durP2;ratioP2;P2;SDS_P1;SDS_P2;PMS_P1;PMS_P2;Temp;Humidity;BMP_temperature;BMP_pressure;BME280_temperature;BME280_humidity;BME280_pressure;Samples;Min_cycle;Max_cycle;Signal;HPM_P1;HPM_P2
2022/04/08 00:01:49;;;;;;;2.90;0.70;;;;;;;8.74;62.76;99119.19;4973796;28;20029;-83
2022/04/08 00:04:14;;;;;;;1.48;0.60;;;;;;;8.71;63.07;99123.84;4973727;28;20033;-82
2022/04/08 00:06:40;;;;;;;1.40;0.63;;;;;;;8.70;63.02;99117.78;4973922;28;20031;-82
2022/04/08 00:09:05;;;;;;;1.92;0.60;;;;;;;8.73;62.86;99114.91;4986190;28;20480;-82
2022/04/08 00:11:30;;;;;;;3.05;0.85;;;;;;;8.71;62.60;99114.22;4991579;28;20026;-82
2022/04/08 00:13:56;;;;;;;5.10;0.70;;;;;;;8.66;62.42;99116.34;4993012;28;20026;-83
2022/04/08 00:16:21;;;;;;;1.25;0.57;;;;;;;8.63;62.58;99119.25;4993032;28;20026;-82
2022/04/08 00:18:47;;;;;;;2.03;0.77;;;;;;;8.60;62.70;99114.25;4991676;28;20027;-82
2022/04/08 00:21:13;;;;;;;2.92;0.70;;;;;;;8.63;62.91;99121.00;4992662;28;20080;-82
2022/04/08 00:23:39;;;;;;;8.02;0.90;;;;;;;8.57;62.32;99105.78;4981028;28;20035;-82
2022/04/08 00:26:04;;;;;;;2.80;0.70;;;;;;;8.49;62.92;99109.03;4973274;28;20101;-82
2022/04/08 00:28:30;;;;;;;2.80;0.75;;;;;;;8.41;62.77;99107.06;4973371;28;20062;-82
2022/04/08 00:30:55;;;;;;;2.42;0.45;;;;;;;8.39;62.88;99105.47;4973326;28;20101;-82
2022/04/08 00:33:20;;;;;;;3.28;0.60;;;;;;;8.40;62.99;99105.34;4971942;28;20069;-83
2022/04/08 00:35:46;;;;;;;1.50;0.50;;;;;;;8.95;60.82;99109.72;4973380;28;20030;-82
2022/04/08 00:38:11;;;;;;;4.45;0.68;;;;;;;9.12;60.48;99102.16;4974189;28;20058;-83
2022/04/08 00:40:37;;;;;;;2.78;0.50;;;;;;;9.05;59.81;99094.94;4973616;28;20175;-82
2022/04/08 00:43:17;;;;;;;1.50;0.50;;;;;;;9.15;59.86;99090.59;4973121;28;20103;-83
2022/04/08 00:45:44;;;;;;;2.92;0.60;;;;;;;9.01;59.95;99089.09;4973253;28;20477;-83
2022/04/08 00:48:10;;;;;;;5.75;0.90;;;;;;;9.00;59.97;99076.97;4972813;28;20027;-82
2022/04/08 00:50:37;;;;;;;1.77;0.65;;;;;;;8.99;59.52;99071.88;4973107;28;20023;-82
2022/04/08 00:53:04;;;;;;;1.85;0.88;;;;;;;8.97;59.97;99052.84;4977973;28;20452;-83
2022/04/08 00:55:30;;;;;;;2.55;0.60;;;;;;;8.97;59.32;99065.94;4992420;28;20022;-82
2022/04/08 00:57:55;;;;;;;3.83;0.63;;;;;;;8.93;59.32;99057.50;4992479;28;20044;-83
2022/04/08 01:00:22;;;;;;;1.85;0.70;;;;;;;8.92;59.99;99051.41;4995375;28;20086;-82
2022/04/08 01:02:48;;;;;;;2.50;0.77;;;;;;;8.87;59.21;99050.97;4996496;28;20034;-82
2022/04/08 01:05:13;;;;;;;2.40;0.57;;;;;;;8.80;58.94;99044.56;4996957;28;20022;-82
2022/04/08 01:07:39;;;;;;;0.88;0.28;;;;;;;8.71;59.45;99034.88;4994070;28;20034;-82
2022/04/08 01:10:05;;;;;;;1.25;0.45;;;;;;;8.69;59.12;99042.84;4976777;28;20031;-82
2022/04/08 01:12:31;;;;;;;0.80;0.57;;;;;;;8.62;59.29;99053.94;4976618;28;20069;-82
2022/04/08 01:15:00;;;;;;;3.30;0.60;;;;;;;8.63;59.62;99056.44;4976672;28;20429;-83
2022/04/08 01:17:26;;;;;;;2.58;0.65;;;;;;;8.54;59.37;99065.03;4976842;28;20109;-82
2022/04/08 01:19:51;;;;;;;3.00;0.75;;;;;;;8.51;59.91;99058.25;4976673;28;20026;-83
2022/04/08 01:22:20;;;;;;;1.10;0.40;;;;;;;8.58;59.88;99061.19;4976669;28;20490;-83
2022/04/08 01:24:48;;;;;;;1.30;0.57;;;;;;;8.55;60.54;99053.63;4994806;28;20033;-83
2022/04/08 01:27:17;;;;;;;4.97;0.82;;;;;;;8.65;60.42;99059.75;4996205;28;20084;-83
2022/04/08 01:29:43;;;;;;;2.55;0.57;;;;;;;8.62;60.34;99059.19;4995910;28;20030;-83
2022/04/08 01:32:08;;;;;;;2.67;0.63;;;;;;;8.60;59.94;99053.25;4996106;28;20018;-83
2022/04/08 01:34:34;;;;;;;4.68;0.75;;;;;;;8.59;59.89;99062.03;4994507;28;20018;-83
2022/04/08 01:36:59;;;;;;;1.67;0.63;;;;;;;8.61;60.64;99067.97;4996231;28;20014;-82
2022/04/08 01:39:24;;;;;;;1.35;0.50;;;;;;;8.59;60.15;99067.25;4995821;28;20023;-83
2022/04/08 01:41:49;;;;;;;2.33;0.55;;;;;;;8.60;61.38;99064.53;4996062;28;20135;-82
2022/04/08 01:44:15;;;;;;;1.80;0.50;;;;;;;8.68;60.76;99050.81;4983434;28;20114;-82
2022/04/08 01:46:40;;;;;;;5.32;0.73;;;;;;;8.79;61.03;99053.41;4976423;28;20103;-82
2022/04/08 01:49:05;;;;;;;4.63;0.55;;;;;;;8.79;60.71;99049.94;4976318;28;20158;-83
2022/04/08 01:51:31;;;;;;;3.70;0.98;;;;;;;8.85;60.49;99054.69;4988128;28;20030;-82
2022/04/08 01:53:56;;;;;;;2.60;0.57;;;;;;;8.86;60.50;99048.47;4995835;28;20034;-82
2022/04/08 01:56:21;;;;;;;3.25;0.70;;;;;;;8.84;60.93;99032.06;4993916;28;20030;-82
2022/04/08 01:58:47;;;;;;;2.00;0.70;;;;;;;8.84;61.22;99029.47;4995564;28;20285;-82
2022/04/08 02:01:12;;;;;;;1.15;0.50;;;;;;;8.82;60.56;99010.44;4995389;28;20014;-83
2022/04/08 02:03:37;;;;;;;4.57;0.88;;;;;;;8.85;61.10;99013.63;4995507;28;20023;-83
2022/04/08 02:06:03;;;;;;;3.13;0.65;;;;;;;8.85;60.58;99004.97;4993566;28;20026;-83
2022/04/08 02:08:28;;;;;;;4.25;1.00;;;;;;;8.82;60.47;98999.97;4995490;28;20030;-84
2022/04/08 02:10:54;;;;;;;3.63;0.60;;;;;;;8.79;60.40;98987.97;4993145;28;20470;-83
2022/04/08 02:13:20;;;;;;;4.57;0.70;;;;;;;8.81;60.59;98990.47;4995440;28;20113;-84
2022/04/08 02:15:46;;;;;;;4.03;0.70;;;;;;;8.81;60.15;98982.63;4995305;28;20036;-83
2022/04/08 02:18:12;;;;;;;3.17;0.68;;;;;;;8.83;60.92;98988.56;4993928;28;20033;-83
2022/04/08 02:20:38;;;;;;;2.45;0.70;;;;;;;8.84;61.06;98975.31;4993176;28;20027;-83
2022/04/08 02:23:05;;;;;;;2.28;0.73;;;;;;;8.85;60.76;98961.28;4993646;28;20023;-83
2022/04/08 02:25:30;;;;;;;4.05;0.70;;;;;;;8.83;61.60;98960.59;4993674;28;20440;-83
2022/04/08 02:27:56;;;;;;;4.10;1.00;;;;;;;8.85;60.87;98953.44;4995135;28;20027;-84
2022/04/08 02:30:21;;;;;;;5.00;1.35;;;;;;;8.86;60.78;98962.94;4995019;28;20452;-83
2022/04/08 02:32:46;;;;;;;2.25;0.50;;;;;;;8.78;60.79;98972.38;4994684;28;20030;-84
2022/04/08 02:35:12;;;;;;;5.50;0.95;;;;;;;8.72;61.02;98979.78;4994982;28;20027;-84
2022/04/08 02:37:38;;;;;;;3.00;0.80;;;;;;;8.61;61.70;98989.47;4977780;28;20033;-82
2022/04/08 02:40:05;;;;;;;2.90;0.60;;;;;;;8.58;61.42;98976.66;4975153;28;20031;-82
2022/04/08 02:42:31;;;;;;;7.60;0.90;;;;;;;8.50;61.38;98972.88;4975410;28;20034;-82
2022/04/08 02:44:57;;;;;;;3.80;1.10;;;;;;;8.71;61.53;98965.06;4975160;28;20027;-82
2022/04/08 02:47:22;;;;;;;5.10;0.80;;;;;;;8.65;61.49;98962.94;4975400;28;20507;-84
2022/04/08 02:49:48;;;;;;;3.05;0.80;;;;;;;8.72;61.31;98966.69;4974975;28;20035;-84
2022/04/08 02:52:13;;;;;;;2.70;0.80;;;;;;;8.73;61.12;98957.09;4990195;28;20027;-82
2022/04/08 02:54:39;;;;;;;6.25;0.90;;;;;;;8.77;61.89;98941.94;4992935;28;20022;-83
2022/04/08 02:57:04;;;;;;;5.05;0.70;;;;;;;8.80;60.58;98936.44;4994347;28;20488;-84
2022/04/08 02:59:29;;;;;;;4.45;0.80;;;;;;;8.81;61.12;98932.88;4994428;28;20421;-83
2022/04/08 03:01:55;;;;;;;3.97;0.70;;;;;;;8.74;60.94;98930.75;4994443;28;20026;-83
2022/04/08 03:04:21;;;;;;;2.53;0.60;;;;;;;8.64;60.73;98914.19;4994368;28;20118;-83
2022/04/08 03:06:46;;;;;;;2.40;0.50;;;;;;;8.68;60.67;98920.81;4994446;28;20034;-83
2022/04/08 03:09:12;;;;;;;0.82;0.60;;;;;;;8.66;60.95;98907.03;4991191;28;20113;-84
2022/04/08 03:11:37;;;;;;;8.45;0.75;;;;;;;8.64;61.42;98903.72;4994005;28;20019;-84
2022/04/08 03:14:04;;;;;;;3.38;0.70;;;;;;;8.64;61.59;98903.72;4994143;28;20475;-84
2022/04/08 03:16:30;;;;;;;4.43;0.90;;;;;;;8.64;61.42;98898.47;4993882;28;20042;-84
2022/04/08 03:18:55;;;;;;;3.42;0.57;;;;;;;8.68;61.48;98902.50;4993023;28;20058;-83
2022/04/08 03:21:21;;;;;;;3.22;0.60;;;;;;;8.74;61.65;98899.34;4993997;28;20030;-82
2022/04/08 03:23:48;;;;;;;4.18;0.65;;;;;;;8.79;61.42;98895.53;4985743;28;20060;-84
2022/04/08 03:26:13;;;;;;;3.67;1.67;;;;;;;8.80;61.43;98902.44;4974280;28;20030;-82
2022/04/08 03:28:39;;;;;;;6.05;0.60;;;;;;;8.85;61.50;98908.13;4974837;28;20029;-83
2022/04/08 03:31:04;;;;;;;3.10;0.63;;;;;;;8.86;61.94;98909.75;4973024;28;20027;-83
2022/04/08 03:33:30;;;;;;;2.90;0.70;;;;;;;8.87;61.64;98903.56;4974219;28;20033;-82
2022/04/08 03:35:55;;;;;;;2.30;0.70;;;;;;;8.87;61.71;98899.16;4974377;28;20034;-82
2022/04/08 03:38:20;;;;;;;1.98;0.77;;;;;;;8.92;61.20;98898.75;4980909;28;20082;-83
2022/04/08 03:40:47;;;;;;;5.88;1.23;;;;;;;8.95;61.73;98885.44;4993618;28;20113;-82
2022/04/08 03:43:13;;;;;;;2.35;0.75;;;;;;;8.99;61.53;98878.16;4993644;28;20088;-82
2022/04/08 03:45:38;;;;;;;2.85;0.70;;;;;;;9.01;60.58;98874.44;4993428;28;20026;-82
2022/04/08 03:48:04;;;;;;;2.97;0.95;;;;;;;9.01;61.39;98858.72;4993393;28;20030;-83
2022/04/08 03:50:30;;;;;;;3.78;0.52;;;;;;;9.03;61.37;98864.66;4993562;28;20061;-82
2022/04/08 03:52:55;;;;;;;3.92;0.70;;;;;;;9.05;61.35;98861.91;4993863;28;20022;-83
2022/04/08 03:55:21;;;;;;;2.63;0.60;;;;;;;9.05;61.00;98857.50;4996007;28;20081;-83
2022/04/08 03:57:47;;;;;;;3.58;0.93;;;;;;;9.07;61.47;98847.72;4992503;28;20100;-83
2022/04/08 04:00:13;;;;;;;2.63;0.82;;;;;;;9.05;62.24;98840.97;4992944;28;20018;-83
2022/04/08 04:02:38;;;;;;;4.95;1.10;;;;;;;9.03;61.91;98848.13;4993291;28;20038;-82
2022/04/08 04:05:04;;;;;;;3.30;0.55;;;;;;;9.04;61.73;98850.59;4992853;28;20054;-83
2022/04/08 04:07:29;;;;;;;4.95;1.05;;;;;;;9.04;61.91;98847.97;4992793;28;20081;-82
2022/04/08 04:09:56;;;;;;;1.88;0.70;;;;;;;9.08;61.48;98849.38;4989879;28;20552;-82
2022/04/08 04:12:21;;;;;;;1.92;0.70;;;;;;;9.05;61.88;98847.03;4992980;28;20038;-82
2022/04/08 04:14:47;;;;;;;3.35;0.98;;;;;;;9.13;62.11;98847.19;4991871;28;20018;-82
2022/04/08 04:17:13;;;;;;;3.58;0.63;;;;;;;9.15;61.61;98843.63;4992972;28;20101;-82
2022/04/08 04:19:38;;;;;;;2.05;0.63;;;;;;;9.19;61.96;98839.75;4991508;28;20026;-82
2022/04/08 04:22:04;;;;;;;6.30;1.02;;;;;;;9.22;61.96;98839.47;4992851;28;20524;-82
2022/04/08 04:24:29;;;;;;;5.07;1.58;;;;;;;9.23;61.55;98838.53;4977984;28;20031;-82
2022/04/08 04:26:55;;;;;;;2.17;0.80;;;;;;;9.27;61.91;98845.16;4973413;28;20038;-83
2022/04/08 04:29:20;;;;;;;3.25;0.88;;;;;;;9.27;62.16;98845.97;4973474;28;20062;-83
2022/04/08 04:31:46;;;;;;;3.17;0.90;;;;;;;9.27;61.97;98851.22;4971960;28;20098;-83
2022/04/08 04:34:12;;;;;;;2.63;1.10;;;;;;;9.23;62.09;98849.81;4972883;28;20045;-83
2022/04/08 04:36:37;;;;;;;2.55;0.88;;;;;;;9.28;61.95;98854.66;4973410;28;20465;-83
2022/04/08 04:39:02;;;;;;;1.48;0.70;;;;;;;9.27;61.84;98848.59;4974148;28;20053;-83
2022/04/08 04:41:28;;;;;;;3.63;0.98;;;;;;;9.27;61.64;98855.63;4973080;28;20033;-83
2022/04/08 04:43:53;;;;;;;3.13;0.85;;;;;;;9.24;61.56;98854.13;4971777;28;20026;-83
2022/04/08 04:46:19;;;;;;;2.80;0.68;;;;;;;9.19;61.65;98845.00;4972968;28;20023;-83
2022/04/08 04:48:44;;;;;;;4.90;1.10;;;;;;;9.12;61.63;98845.53;4972869;28;20433;-83
2022/04/08 04:51:11;;;;;;;2.33;0.80;;;;;;;9.11;61.42;98841.25;4971687;28;20038;-83
2022/04/08 04:53:37;;;;;;;3.25;0.65;;;;;;;9.12;61.47;98828.97;4978675;28;20022;-83
2022/04/08 04:56:02;;;;;;;3.15;0.88;;;;;;;9.16;61.75;98832.16;4991310;28;20085;-83
2022/04/08 04:58:28;;;;;;;2.67;0.90;;;;;;;9.16;61.64;98817.28;4991298;28;20069;-82
2022/04/08 05:00:53;;;;;;;2.30;0.82;;;;;;;9.22;61.58;98813.28;4992200;28;20027;-82
2022/04/08 05:03:18;;;;;;;4.88;1.10;;;;;;;9.20;61.78;98802.97;4975592;28;20473;-82
2022/04/08 05:05:44;;;;;;;8.00;1.00;;;;;;;9.24;61.77;98808.75;4972921;28;20481;-83
2022/04/08 05:08:09;;;;;;;1.92;0.70;;;;;;;9.20;61.70;98805.59;4972999;28;20466;-83
2022/04/08 05:10:35;;;;;;;5.93;1.27;;;;;;;9.20;61.79;98800.34;4972892;28;20033;-83
2022/04/08 05:13:00;;;;;;;4.25;0.70;;;;;;;9.22;61.96;98810.66;4972892;28;20030;-82
2022/04/08 05:15:27;;;;;;;4.68;0.68;;;;;;;9.25;61.66;98803.38;4973767;28;20150;-83
2022/04/08 05:17:53;;;;;;;3.70;1.17;;;;;;;9.29;62.12;98794.28;4972721;28;20023;-83
2022/04/08 05:20:19;;;;;;;4.25;0.77;;;;;;;9.31;61.72;98775.81;4972981;28;20109;-83
2022/04/08 05:22:44;;;;;;;1.10;0.60;;;;;;;9.35;61.88;98774.59;4973048;28;20524;-82
2022/04/08 05:25:10;;;;;;;2.08;0.70;;;;;;;9.38;61.95;98763.00;4971717;28;20045;-82
2022/04/08 05:27:41;;;;;;;2.75;0.63;;;;;;;9.47;61.39;98757.75;4973212;28;20085;-83
2022/04/08 05:30:17;;;;;;;2.50;1.00;;;;;;;9.57;61.63;98754.31;4972590;28;20038;-83
2022/04/08 05:32:46;;;;;;;2.65;0.90;;;;;;;9.49;61.43;98757.63;4973590;28;20441;-83
2022/04/08 05:35:14;;;;;;;2.45;0.80;;;;;;;9.40;61.52;98754.06;4972831;28;20097;-83
2022/04/08 05:37:44;;;;;;;3.10;0.80;;;;;;;9.38;61.87;98749.91;4972717;28;20030;-82
2022/04/08 05:40:10;;;;;;;5.72;1.20;;;;;;;9.32;62.09;98752.13;4955906;28;20026;-82
2022/04/08 05:42:35;;;;;;;2.92;0.90;;;;;;;9.33;61.82;98755.56;4972758;28;20093;-82
2022/04/08 05:45:01;;;;;;;5.05;1.40;;;;;;;9.34;61.68;98754.59;4972919;28;20026;-82
2022/04/08 05:47:28;;;;;;;5.95;0.90;;;;;;;9.37;62.27;98763.97;4990073;28;20053;-82
2022/04/08 05:49:53;;;;;;;4.70;1.20;;;;;;;9.39;62.30;98768.09;4995479;28;20022;-82
2022/04/08 05:52:18;;;;;;;9.60;1.63;;;;;;;9.36;62.66;98771.00;4995517;28;20029;-82
2022/04/08 05:54:44;;;;;;;5.45;1.48;;;;;;;9.42;62.42;98765.22;4995710;28;20031;-82
2022/04/08 05:57:09;;;;;;;3.78;1.05;;;;;;;9.42;62.77;98757.38;4995575;28;20018;-82
2022/04/08 05:59:37;;;;;;;3.90;1.40;;;;;;;9.48;61.99;98769.91;4994230;28;20468;-82
2022/04/08 06:02:05;;;;;;;6.10;1.50;;;;;;;9.51;62.47;98764.38;4981969;28;20027;-82
2022/04/08 06:04:30;;;;;;;2.05;1.00;;;;;;;9.54;62.70;98763.28;4976127;28;20031;-82
2022/04/08 06:06:56;;;;;;;3.15;1.13;;;;;;;9.56;62.09;98755.28;4975786;28;20026;-82
2022/04/08 06:09:21;;;;;;;2.45;0.70;;;;;;;9.59;62.55;98752.41;4975911;28;20034;-82
2022/04/08 06:11:48;;;;;;;3.00;1.00;;;;;;;9.57;62.08;98736.81;4975856;28;20035;-86
2022/04/08 06:14:14;;;;;;;2.67;0.93;;;;;;;9.59;62.49;98737.50;4987065;28;20041;-85
2022/04/08 06:16:39;;;;;;;4.25;1.27;;;;;;;9.67;62.57;98723.69;4978789;28;20034;-85
2022/04/08 06:19:04;;;;;;;7.05;1.00;;;;;;;9.79;62.23;98729.63;4994132;28;20029;-86
2022/04/08 06:21:30;;;;;;;7.05;1.63;;;;;;;9.82;62.24;98727.53;4995221;28;20027;-88
2022/04/08 06:23:55;;;;;;;2.83;1.25;;;;;;;9.92;62.09;98730.97;4995070;28;20102;-82
2022/04/08 06:26:20;;;;;;;5.75;1.13;;;;;;;9.90;62.24;98734.72;4995003;28;20121;-82
2022/04/08 06:28:46;;;;;;;2.70;1.00;;;;;;;9.90;62.48;98721.59;4992981;28;20022;-82
2022/04/08 06:31:12;;;;;;;4.40;1.50;;;;;;;9.98;62.51;98734.81;4992588;28;20061;-81
2022/04/08 06:33:38;;;;;;;6.47;1.35;;;;;;;9.99;62.29;98741.75;4974127;28;20023;-82
2022/04/08 06:36:03;;;;;;;4.90;1.40;;;;;;;10.04;62.45;98746.53;4974082;28;20029;-82
2022/04/08 06:38:29;;;;;;;5.88;1.30;;;;;;;10.04;62.33;98725.56;4982974;28;20396;-81
2022/04/08 06:40:54;;;;;;;4.70;1.10;;;;;;;10.06;61.56;98715.75;4991118;28;20026;-82
2022/04/08 06:43:19;;;;;;;4.90;1.13;;;;;;;10.02;62.10;98711.78;4986306;28;20029;-83
2022/04/08 06:45:45;;;;;;;3.85;1.50;;;;;;;10.16;61.19;98724.44;4982721;28;20501;-83
2022/04/08 06:48:10;;;;;;;3.63;1.45;;;;;;;10.17;61.73;98712.97;4984228;28;20117;-83
2022/04/08 06:50:36;;;;;;;5.10;1.90;;;;;;;10.20;61.19;98704.00;4981181;28;20026;-81
2022/04/08 06:53:02;;;;;;;4.10;1.98;;;;;;;10.27;61.23;98710.31;4984226;28;20022;-82
2022/04/08 06:55:31;;;;;;;5.38;2.00;;;;;;;10.27;61.04;98705.91;4976734;28;20050;-82
2022/04/08 06:58:02;;;;;;;3.65;2.47;;;;;;;10.30;60.77;98700.38;4992357;28;20018;-82
2022/04/08 07:00:28;;;;;;;5.45;2.38;;;;;;;10.31;60.78;98701.22;4988859;28;20066;-82
2022/04/08 07:02:53;;;;;;;7.13;2.45;;;;;;;10.21;61.30;98701.22;4983845;28;20058;-81
2022/04/08 07:05:18;;;;;;;9.32;2.50;;;;;;;10.25;61.00;98707.03;4992864;28;20022;-81
2022/04/08 07:07:47;;;;;;;11.30;2.70;;;;;;;10.19;61.27;98703.16;4992028;28;20034;-82
2022/04/08 07:10:13;;;;;;;8.85;3.03;;;;;;;10.27;61.16;98705.91;4992405;28;20395;-82
2022/04/08 07:12:38;;;;;;;9.32;2.25;;;;;;;10.35;61.09;98696.50;4975543;28;20034;-82
2022/04/08 07:15:05;;;;;;;5.63;2.83;;;;;;;10.43;60.53;98696.63;4981562;28;20030;-82
2022/04/08 07:17:33;;;;;;;5.97;1.92;;;;;;;10.50;60.41;98689.78;4973878;28;20495;-83
2022/04/08 07:19:58;;;;;;;6.97;1.90;;;;;;;10.44;60.72;98698.25;4991737;28;20061;-82
2022/04/08 07:22:25;;;;;;;5.55;1.27;;;;;;;10.37;59.29;98697.16;4976137;28;20058;-84
2022/04/08 07:24:52;;;;;;;7.72;1.50;;;;;;;10.51;59.18;98689.66;4974605;28;20042;-83
2022/04/08 07:27:18;;;;;;;5.70;1.63;;;;;;;10.60;59.18;98682.69;4990352;28;20473;-84
2022/04/08 07:29:44;;;;;;;7.75;1.30;;;;;;;10.55;58.69;98698.06;4992127;28;20500;-83
2022/04/08 07:32:10;;;;;;;7.38;1.38;;;;;;;10.69;58.96;98688.88;4979210;28;20492;-83
2022/04/08 07:34:36;;;;;;;6.80;1.42;;;;;;;10.77;58.21;98696.03;4973933;28;20031;-84
2022/04/08 07:37:02;;;;;;;10.95;1.20;;;;;;;10.87;58.65;98699.41;4982180;28;20113;-82
2022/04/08 07:39:28;;;;;;;8.02;1.73;;;;;;;10.93;58.85;98700.63;4982572;28;20030;-82
2022/04/08 07:41:53;;;;;;;4.00;1.23;;;;;;;10.98;58.45;98703.59;4973834;28;20480;-82
2022/04/08 07:44:18;;;;;;;5.65;1.23;;;;;;;10.98;58.20;98703.59;4974168;28;20030;-82
2022/04/08 07:46:44;;;;;;;5.57;1.63;;;;;;;10.95;58.20;98696.88;4974141;28;20042;-82
2022/04/08 07:49:09;;;;;;;5.07;1.90;;;;;;;11.06;57.99;98704.53;4983663;28;20022;-82
2022/04/08 07:51:34;;;;;;;6.70;1.30;;;;;;;11.12;58.18;98713.63;4993203;28;20026;-82
2022/04/08 07:54:00;;;;;;;4.35;1.33;;;;;;;11.14;57.78;98718.69;4981258;28;20034;-82
2022/04/08 07:56:25;;;;;;;3.35;0.85;;;;;;;11.22;58.33;98717.00;4974686;28;20381;-82
2022/04/08 07:58:50;;;;;;;4.55;1.00;;;;;;;11.34;58.01;98730.75;4988482;28;20374;-82
2022/04/08 08:01:16;;;;;;;4.30;0.98;;;;;;;11.43;58.35;98735.09;4993156;28;20109;-82
2022/04/08 08:03:45;;;;;;;7.20;1.30;;;;;;;11.45;57.58;98738.41;4979463;28;20022;-83
2022/04/08 08:06:11;;;;;;;5.22;1.30;;;;;;;11.58;58.11;98734.56;4973587;28;20035;-83
2022/04/08 08:08:36;;;;;;;5.93;1.50;;;;;;;11.67;57.91;98734.47;4973533;28;20106;-83
2022/04/08 08:11:03;;;;;;;3.22;1.08;;;;;;;11.83;57.82;98741.66;4973616;28;20430;-83
2022/04/08 08:13:29;;;;;;;8.65;1.63;;;;;;;11.84;57.54;98748.56;4973583;28;20029;-82
2022/04/08 08:15:54;;;;;;;9.00;2.72;;;;;;;11.98;56.48;98744.59;4973356;28;20027;-82
2022/04/08 08:18:21;;;;;;;18.75;6.45;;;;;;;11.94;57.02;98737.97;4983096;28;20061;-82
2022/04/08 08:20:47;;;;;;;14.52;4.03;;;;;;;12.06;57.08;98741.19;4992723;28;20038;-82
2022/04/08 08:23:13;;;;;;;10.38;2.03;;;;;;;12.30;56.35;98743.97;4993145;28;20401;-83
2022/04/08 08:25:38;;;;;;;6.40;1.58;;;;;;;12.23;55.14;98745.56;4992503;28;20033;-82
2022/04/08 08:28:03;;;;;;;5.07;1.25;;;;;;;12.24;55.33;98744.59;4992723;28;20027;-82
2022/04/08 08:30:30;;;;;;;4.32;1.17;;;;;;;12.58;55.02;98743.78;4991395;28;20489;-82
2022/04/08 08:32:58;;;;;;;6.90;1.20;;;;;;;12.68;54.60;98747.13;4990974;28;20030;-82
2022/04/08 08:35:25;;;;;;;8.02;1.23;;;;;;;12.36;54.87;98749.59;4992467;28;20030;-82
2022/04/08 08:37:51;;;;;;;5.05;0.95;;;;;;;12.58;53.95;98761.38;4991518;28;20026;-82
2022/04/08 08:40:18;;;;;;;5.75;1.45;;;;;;;13.04;53.67;98767.16;4992962;28;20666;-82
2022/04/08 08:42:44;;;;;;;7.35;1.20;;;;;;;13.13;53.38;98757.47;4994088;28;20026;-82
2022/04/08 08:45:11;;;;;;;2.83;1.20;;;;;;;12.92;54.02;98768.44;4993733;28;20026;-82
2022/04/08 08:47:37;;;;;;;5.25;1.33;;;;;;;12.39;53.55;98767.72;4991730;28;20030;-83
2022/04/08 08:50:04;;;;;;;5.35;1.30;;;;;;;12.76;52.64;98761.31;4992232;28;20045;-82
2022/04/08 08:52:31;;;;;;;8.68;1.55;;;;;;;12.93;52.66;98762.19;4992538;28;20027;-82
2022/04/08 08:54:56;;;;;;;6.78;1.50;;;;;;;12.97;53.03;98761.69;4991271;28;20025;-82
2022/04/08 08:57:23;;;;;;;3.75;1.00;;;;;;;13.28;52.67;98769.03;4976882;28;20031;-82
2022/04/08 08:59:52;;;;;;;5.43;1.30;;;;;;;13.03;52.36;98771.63;4973085;28;20114;-82
2022/04/08 09:02:22;;;;;;;5.32;1.40;;;;;;;13.12;51.86;98779.53;4971766;28;20027;-83
2022/04/08 09:04:49;;;;;;;3.90;1.30;;;;;;;13.15;51.25;98779.22;4972833;28;20034;-83
2022/04/08 09:07:25;;;;;;;4.20;1.05;;;;;;;13.43;50.61;98779.81;4973046;28;20031;-83
2022/04/08 09:09:56;;;;;;;6.90;1.35;;;;;;;13.51;50.44;98778.97;4973854;28;20027;-82
2022/04/08 09:12:28;;;;;;;7.05;1.75;;;;;;;13.37;50.04;98781.28;4972764;28;20053;-82
2022/04/08 09:14:57;;;;;;;7.03;1.80;;;;;;;13.33;50.48;98790.50;4972908;28;20171;-81
2022/04/08 09:17:25;;;;;;;9.07;1.23;;;;;;;13.45;50.11;98786.56;4973305;28;20478;-81
2022/04/08 09:19:53;;;;;;;5.93;1.40;;;;;;;13.61;49.62;98783.13;4974460;28;20489;-82
2022/04/08 09:22:19;;;;;;;7.30;1.60;;;;;;;13.63;49.26;98791.69;4976777;28;20030;-82
2022/04/08 09:24:44;;;;;;;8.80;1.20;;;;;;;13.89;48.75;98791.53;4975399;28;20370;-82
2022/04/08 09:27:11;;;;;;;5.15;1.13;;;;;;;14.52;48.38;98798.91;4994800;28;20026;-81
2022/04/08 09:29:36;;;;;;;4.88;1.23;;;;;;;14.92;47.29;98808.53;4995501;28;20023;-82
2022/04/08 09:32:09;;;;;;;4.80;1.00;;;;;;;15.30;46.64;98813.97;4995855;28;20030;-82
2022/04/08 09:34:35;;;;;;;7.93;1.20;;;;;;;15.29;45.42;98817.63;4995847;28;20041;-82
2022/04/08 09:37:11;;;;;;;11.00;1.40;;;;;;;15.58;44.28;98816.13;4996122;28;20026;-82
2022/04/08 09:39:57;;;;;;;7.80;1.17;;;;;;;16.08;43.48;98822.75;4995824;28;20030;-82
2022/04/08 09:42:44;;;;;;;9.35;1.60;;;;;;;15.91;43.50;98829.97;4981892;28;20042;-83
2022/04/08 09:45:10;;;;;;;5.68;1.75;;;;;;;15.65;42.91;98827.66;4995710;28;20048;-82
2022/04/08 09:47:36;;;;;;;7.05;1.42;;;;;;;15.98;43.33;98833.56;4995760;28;20030;-82
2022/04/08 09:50:02;;;;;;;5.25;1.55;;;;;;;15.88;43.40;98840.94;4995521;28;20077;-83
2022/04/08 09:52:28;;;;;;;8.85;1.40;;;;;;;15.27;43.70;98835.47;4995600;28;20034;-83
2022/04/08 09:54:58;;;;;;;6.78;1.85;;;;;;;15.53;43.41;98829.06;4995495;28;20034;-82
2022/04/08 09:57:23;;;;;;;5.82;1.40;;;;;;;15.45;43.45;98840.50;4989213;28;20062;-82
2022/04/08 09:59:54;;;;;;;7.82;1.50;;;;;;;15.85;43.06;98838.63;4976088;28;20062;-82
2022/04/08 10:02:24;;;;;;;6.67;1.53;;;;;;;16.44;43.10;98843.28;4975991;28;20034;-82
2022/04/08 10:04:51;;;;;;;8.57;1.98;;;;;;;16.32;43.29;98850.81;4976124;28;20062;-82
2022/04/08 10:07:18;;;;;;;4.57;2.05;;;;;;;16.06;42.55;98861.81;4976116;28;20039;-83
2022/04/08 10:09:54;;;;;;;12.05;5.05;;;;;;;16.29;42.57;98855.66;4975850;28;20249;-82
2022/04/08 10:12:38;;;;;;;8.13;3.40;;;;;;;16.39;42.39;98851.75;4975882;28;20389;-82
2022/04/08 10:15:33;;;;;;;5.68;2.35;;;;;;;16.80;42.30;98858.47;4975756;28;20112;-82
2022/04/08 10:18:00;;;;;;;8.35;1.60;;;;;;;17.20;40.91;98864.31;4975332;28;20043;-83
2022/04/08 10:20:28;;;;;;;7.70;1.65;;;;;;;17.74;40.45;98858.63;4975526;28;20400;-83
2022/04/08 10:23:08;;;;;;;7.38;1.63;;;;;;;18.10;39.02;98860.44;4975677;28;20054;-83
2022/04/08 10:25:42;;;;;;;4.63;1.13;;;;;;;19.08;38.25;98867.72;4974280;28;20388;-83
2022/04/08 10:28:09;;;;;;;8.18;1.58;;;;;;;18.53;38.00;98863.03;4975523;28;20503;-83
2022/04/08 10:30:44;;;;;;;4.20;1.27;;;;;;;19.88;36.80;98860.84;4975207;28;20031;-83
2022/04/08 10:33:11;;;;;;;8.93;1.35;;;;;;;19.77;36.34;98861.44;4975404;28;20409;-82
2022/04/08 10:35:37;;;;;;;6.45;1.17;;;;;;;20.24;35.28;98867.66;4975184;28;20513;-82
2022/04/08 10:38:07;;;;;;;4.97;1.45;;;;;;;20.51;34.57;98873.78;4975435;28;20393;-83
2022/04/08 10:40:37;;;;;;;5.53;1.50;;;;;;;20.56;33.98;98868.66;4975271;28;20022;-83
2022/04/08 10:43:06;;;;;;;6.80;1.83;;;;;;;21.06;33.50;98868.19;4974074;28;20033;-83
2022/04/08 10:45:32;;;;;;;8.88;1.50;;;;;;;21.00;33.66;98872.50;4975106;28;20026;-83
2022/04/08 10:48:18;;;;;;;4.53;1.40;;;;;;;21.07;32.83;98863.66;4975114;28;20437;-82
2022/04/08 10:50:43;;;;;;;5.25;1.25;;;;;;;19.97;33.75;98875.63;4974817;28;20031;-83
2022/04/08 10:53:17;;;;;;;4.25;1.10;;;;;;;19.99;34.04;98872.75;4975114;28;20086;-83
2022/04/08 10:55:49;;;;;;;6.63;0.85;;;;;;;20.14;34.87;98862.75;4975082;28;20019;-83
2022/04/08 10:58:28;;;;;;;4.90;1.35;;;;;;;19.66;33.98;98873.47;4973906;28;20097;-83
2022/04/08 11:00:53;;;;;;;6.95;1.58;;;;;;;18.63;35.18;98866.19;4975043;28;20027;-82
2022/04/08 11:03:25;;;;;;;10.88;1.90;;;;;;;19.25;34.10;98873.50;4974906;28;20030;-82
2022/04/08 11:05:51;;;;;;;4.68;0.95;;;;;;;19.82;33.70;98866.97;4975015;28;20076;-83
2022/04/08 11:08:18;;;;;;;4.18;1.10;;;;;;;19.29;33.90;98867.59;4974879;28;20022;-83
2022/04/08 11:10:43;;;;;;;8.60;1.70;;;;;;;18.56;35.50;98872.47;4974599;28;20546;-82
2022/04/08 11:13:11;;;;;;;5.15;1.45;;;;;;;18.52;35.09;98877.38;4975084;28;20115;-83
2022/04/08 11:15:41;;;;;;;6.60;1.38;;;;;;;18.14;34.71;98876.81;4974986;28;20038;-83
2022/04/08 11:18:08;;;;;;;10.13;1.50;;;;;;;18.69;34.23;98874.41;4984709;28;20540;-82
2022/04/08 11:20:34;;;;;;;4.15;1.20;;;;;;;18.53;35.11;98873.69;4974528;28;20046;-83
2022/04/08 11:23:00;;;;;;;4.85;0.80;;;;;;;18.51;34.84;98870.38;4987460;28;20109;-83
2022/04/08 11:25:28;;;;;;;3.95;1.10;;;;;;;18.77;34.43;98860.97;4983095;28;20030;-82
2022/04/08 11:28:12;;;;;;;10.00;1.55;;;;;;;19.38;34.69;98869.06;4995455;28;20477;-83
2022/04/08 11:30:39;;;;;;;6.32;1.55;;;;;;;19.95;34.70;98868.84;4995685;28;20053;-83
2022/04/08 11:33:31;;;;;;;6.97;1.58;;;;;;;20.34;33.91;98872.56;4991903;28;20031;-83
2022/04/08 11:35:58;;;;;;;6.63;1.23;;;;;;;20.23;33.15;98875.84;4990725;28;20038;-83
2022/04/08 11:38:25;;;;;;;5.68;1.20;;;;;;;20.23;33.07;98881.19;4976095;28;20033;-83